createdAt,value
2023-02-22T00:01:51.265Z,11.17
2023-02-22T00:06:55.313Z,11.73
2023-02-22T00:11:58.952Z,13.60
2023-02-22T00:17:01.429Z,13.17
2023-02-22T00:22:05.252Z,7.13
2023-02-22T00:27:07.581Z,13.03
2023-02-22T00:32:09.685Z,8.00
2023-02-22T00:37:13.585Z,8.77
2023-02-22T00:42:16.124Z,18.10
2023-02-22T00:47:18.125Z,9.37
2023-02-22T00:52:21.562Z,10.97
2023-02-22T00:57:23.759Z,14.87
2023-02-22T01:02:26.029Z,18.10
2023-02-22T01:07:29.863Z,17.77
2023-02-22T01:12:32.382Z,12.10
2023-02-22T01:17:34.622Z,10.73
2023-02-22T01:22:38.737Z,12.60
2023-02-22T01:27:40.927Z,12.33
2023-02-22T01:32:43.813Z,10.93
2023-02-22T01:37:47.453Z,5.97
2023-02-22T01:42:52.474Z,6.87
2023-02-22T01:47:54.598Z,7.67
2023-02-22T01:52:58.515Z,9.93
2023-02-22T01:58:01.245Z,8.80
2023-02-22T02:03:06.634Z,8.80
2023-02-22T02:08:18.431Z,8.07
2023-02-22T02:13:21.337Z,10.43
2023-02-22T02:18:24.220Z,12.07
2023-02-22T02:24:11.263Z,8.47
2023-02-22T02:29:57.874Z,8.50
2023-02-22T02:35:08.090Z,10.50
2023-02-22T02:40:18.931Z,11.40
2023-02-22T02:45:26.233Z,16.70
2023-02-22T02:50:34.949Z,9.60
2023-02-22T02:55:38.555Z,10.63
2023-02-22T03:00:43.358Z,9.83
2023-02-22T03:06:29.514Z,16.00
2023-02-22T03:11:41.426Z,10.77
2023-02-22T03:16:47.942Z,10.73
2023-02-22T03:21:58.497Z,10.80
2023-02-22T03:27:04.159Z,10.47
2023-02-22T03:32:11.933Z,9.33
2023-02-22T03:37:19.276Z,8.13
2023-02-22T03:42:25.402Z,11.77
2023-02-22T03:47:36.460Z,11.43
2023-02-22T03:52:40.974Z,8.23
2023-02-22T03:57:47.636Z,14.87
2023-02-22T04:02:49.760Z,15.43
2023-02-22T04:07:53.420Z,15.47
2023-02-22T04:12:55.883Z,10.23
2023-02-22T04:17:58.166Z,9.80
2023-02-22T04:23:01.543Z,10.20
2023-02-22T04:28:04.193Z,11.47
2023-02-22T04:33:05.994Z,11.50
2023-02-22T04:38:10.975Z,12.40
2023-02-22T04:43:12.944Z,15.93
2023-02-22T04:48:15.430Z,11.93
2023-02-22T04:53:19.262Z,13.47
2023-02-22T04:58:22.091Z,10.80
2023-02-22T05:03:24.632Z,10.80
2023-02-22T05:08:28.163Z,8.43
2023-02-22T05:13:30.573Z,9.67
2023-02-22T05:18:32.380Z,9.60
2023-02-22T05:23:35.792Z,10.00
2023-02-22T05:28:38.021Z,12.57
2023-02-22T05:33:40.568Z,13.80
2023-02-22T05:38:45.046Z,9.90
2023-02-22T05:43:49.320Z,10.50
2023-02-22T05:49:09.184Z,10.77
2023-02-22T05:54:13.079Z,14.93
2023-02-22T05:59:15.048Z,10.80
2023-02-22T06:04:18.210Z,14.23
2023-02-22T06:09:22.063Z,19.00
2023-02-22T06:14:24.554Z,15.53
2023-02-22T06:19:27.162Z,16.77
2023-02-22T06:24:30.878Z,20.90
2023-02-22T06:29:33.034Z,14.50
2023-02-22T06:34:35.248Z,16.07
2023-02-22T06:39:38.672Z,16.00
2023-02-22T06:44:40.563Z,19.90
2023-02-22T06:49:43.027Z,27.67
2023-02-22T06:54:46.616Z,15.63
2023-02-22T06:59:48.851Z,21.23
2023-02-22T07:04:51.067Z,15.97
2023-02-22T07:09:54.973Z,17.93
2023-02-22T07:14:57.684Z,20.73
2023-02-22T07:19:59.996Z,23.73
2023-02-22T07:25:03.264Z,23.80
2023-02-22T07:30:06.544Z,18.40
2023-02-22T07:35:15.146Z,28.50
2023-02-22T07:40:19.487Z,19.23
2023-02-22T07:45:22.215Z,20.40
2023-02-22T07:50:26.151Z,25.83
2023-02-22T07:55:31.827Z,24.70
2023-02-22T08:00:35.967Z,18.63
2023-02-22T08:05:39.845Z,19.77
2023-02-22T08:10:44.286Z,25.10
2023-02-22T08:15:47.357Z,14.47
2023-02-22T08:20:52.098Z,13.43
2023-02-22T08:25:56.444Z,8.57
2023-02-22T08:30:58.896Z,15.70
2023-02-22T08:36:01.823Z,29.47
2023-02-22T08:41:05.506Z,21.83
2023-02-22T08:46:08.359Z,21.17
2023-02-22T08:51:10.504Z,19.13
2023-02-22T08:56:14.419Z,16.63
2023-02-22T09:01:24.799Z,14.97
2023-02-22T09:06:34.386Z,22.27
2023-02-22T09:11:37.908Z,18.27
2023-02-22T09:16:40.013Z,23.07
2023-02-22T09:21:42.477Z,28.53
2023-02-22T09:26:53.583Z,21.63
2023-02-22T09:31:57.817Z,20.23
2023-02-22T09:37:00.031Z,22.27
2023-02-22T09:42:10.854Z,17.17
2023-02-22T09:47:19.340Z,18.47
2023-02-22T09:52:27.936Z,19.10
2023-02-22T09:57:35.975Z,16.83
2023-02-22T10:02:45.635Z,11.03
2023-02-22T10:07:55.040Z,13.75
2023-02-22T10:13:07.245Z,13.38
2023-02-22T10:18:33.988Z,14.37
2023-02-22T10:23:42.988Z,10.07
2023-02-22T10:28:55.449Z,11.88
2023-02-22T10:34:02.234Z,11.88
2023-02-22T10:39:18.026Z,11.68
2023-02-22T10:44:21.395Z,14.88
2023-02-22T10:49:26.027Z,15.02
2023-02-22T10:54:32.984Z,12.02
2023-02-22T10:59:38.769Z,16.10
2023-02-22T11:04:50.879Z,15.45
2023-02-22T11:09:55.925Z,11.93
2023-02-22T11:15:19.001Z,12.27
2023-02-22T11:20:25.666Z,12.05
2023-02-22T11:25:31.299Z,7.35
2023-02-22T11:30:36.872Z,8.60
2023-02-22T11:35:49.927Z,8.57
2023-02-22T11:41:18.677Z,9.82
2023-02-22T11:46:26.420Z,8.20
2023-02-22T11:51:50.348Z,11.23
2023-02-22T11:56:56.024Z,7.47
2023-02-22T12:02:05.315Z,9.95
2023-02-22T12:07:25.421Z,9.50
2023-02-22T12:12:37.192Z,7.88
2023-02-22T12:17:59.998Z,5.88
2023-02-22T12:23:14.312Z,8.15
2023-02-22T12:28:25.051Z,12.95
2023-02-22T12:33:32.876Z,7.85
2023-02-22T12:38:41.426Z,11.70
2023-02-22T12:43:48.454Z,7.90
2023-02-22T12:48:56.041Z,9.13
2023-02-22T12:54:07.745Z,9.55
2023-02-22T12:59:19.472Z,14.20
2023-02-22T13:04:23.472Z,11.15
2023-02-22T13:10:01.740Z,12.95
2023-02-22T13:15:13.607Z,13.15
2023-02-22T13:20:24.483Z,14.82
2023-02-22T13:25:34.845Z,17.63
2023-02-22T13:30:40.397Z,14.50
2023-02-22T13:36:08.800Z,17.83
2023-02-22T13:41:44.764Z,14.27
2023-02-22T13:47:39.465Z,17.88
2023-02-22T13:52:44.444Z,16.27
2023-02-22T13:57:50.028Z,19.95
2023-02-22T14:03:02.543Z,16.35
2023-02-22T14:08:06.931Z,25.23
2023-02-22T14:13:09.395Z,18.35
2023-02-22T14:18:18.440Z,19.58
2023-02-22T14:23:36.057Z,17.27
2023-02-22T14:28:42.506Z,17.65
2023-02-22T14:34:10.554Z,17.42
2023-02-22T14:39:21.183Z,18.85
2023-02-22T14:44:29.347Z,17.70
2023-02-22T14:49:37.428Z,18.95
2023-02-22T14:55:04.580Z,17.85
2023-02-22T15:00:20.285Z,18.38
2023-02-22T15:05:22.346Z,20.03
2023-02-22T15:10:30.545Z,17.83
2023-02-22T15:15:33.109Z,18.80
2023-02-22T15:20:38.579Z,18.50
2023-02-22T15:25:48.485Z,19.15
2023-02-22T15:30:50.463Z,17.95
2023-02-22T15:35:57.312Z,19.52
2023-02-22T15:41:08.572Z,15.52
2023-02-22T15:46:11.201Z,16.88
2023-02-22T15:51:17.291Z,19.17
2023-02-22T15:56:27.328Z,17.53
2023-02-22T16:01:29.913Z,19.27
2023-02-22T16:06:35.548Z,20.17
2023-02-22T16:11:43.501Z,17.60
2023-02-22T16:16:45.834Z,21.10
2023-02-22T16:21:58.531Z,19.50
2023-02-22T16:27:09.455Z,31.83
2023-02-22T16:32:12.126Z,22.50
2023-02-22T16:37:24.302Z,32.33
2023-02-22T16:42:28.893Z,20.83
2023-02-22T16:47:31.874Z,23.07
2023-02-22T16:52:34.340Z,33.50
2023-02-22T16:57:40.685Z,31.43
2023-02-22T17:02:45.206Z,28.80
2023-02-22T17:07:49.572Z,21.93
2023-02-22T17:12:54.600Z,28.80
2023-02-22T17:17:58.920Z,26.00
2023-02-22T17:23:03.970Z,27.87
2023-02-22T17:28:10.690Z,29.87
2023-02-22T17:33:17.337Z,27.77
2023-02-22T17:38:23.666Z,47.30
2023-02-22T17:43:29.652Z,34.20
2023-02-22T17:48:33.460Z,35.17
2023-02-22T17:53:37.135Z,41.20
2023-02-22T17:58:45.478Z,33.47
2023-02-22T18:03:48.814Z,30.47
2023-02-22T18:14:30.225Z,28.77
2023-02-22T18:19:34.057Z,28.37
2023-02-22T18:24:39.164Z,25.87
2023-02-22T18:29:44.326Z,24.00
2023-02-22T18:34:48.867Z,26.70
2023-02-22T18:39:53.337Z,23.40
2023-02-22T18:45:03.475Z,25.80
2023-02-22T18:50:09.651Z,60.33
2023-02-22T18:55:15.506Z,27.37
2023-02-22T19:00:24.919Z,27.33
2023-02-22T19:05:27.686Z,22.47
2023-02-22T19:10:31.399Z,26.57
2023-02-22T19:15:45.832Z,22.43
2023-02-22T19:20:58.481Z,36.33
2023-02-22T19:26:03.507Z,77.07
2023-02-22T19:31:20.475Z,51.17
2023-02-22T19:36:34.071Z,48.37
2023-02-22T19:41:38.991Z,40.97
2023-02-22T19:46:46.198Z,41.37
2023-02-22T19:51:52.472Z,41.43
2023-02-22T19:56:59.199Z,41.43
2023-02-22T20:02:05.795Z,36.90
2023-02-22T20:07:11.164Z,29.90
2023-02-22T20:12:16.311Z,32.37
2023-02-22T20:17:22.175Z,31.30
2023-02-22T20:22:26.963Z,29.33
2023-02-22T20:27:32.020Z,37.50
2023-02-22T20:32:40.362Z,31.90
2023-02-22T20:37:44.616Z,33.17
2023-02-22T20:42:49.545Z,33.70
2023-02-22T20:47:55.293Z,33.27
2023-02-22T20:53:01.351Z,30.73
2023-02-22T20:58:05.895Z,29.17
2023-02-22T21:03:11.611Z,35.40
2023-02-22T21:08:17.412Z,38.27
2023-02-22T21:13:25.358Z,36.33
2023-02-22T21:18:31.058Z,33.43
2023-02-22T21:23:35.940Z,31.40
2023-02-22T21:28:50.896Z,35.37
2023-02-22T21:33:58.087Z,32.70
2023-02-22T21:39:09.230Z,31.50
2023-02-22T21:44:31.860Z,35.03
2023-02-22T21:50:23.889Z,34.43
2023-02-22T21:55:48.698Z,34.40
2023-02-22T22:00:51.222Z,30.40
2023-02-22T22:05:54.964Z,34.03
2023-02-22T22:10:58.382Z,34.93
2023-02-22T22:16:05.057Z,38.23
2023-02-22T22:21:11.494Z,32.87
2023-02-22T22:26:14.141Z,35.20
2023-02-22T22:31:19.672Z,32.97
2023-02-22T22:36:25.044Z,36.57
2023-02-22T22:41:29.101Z,30.53
2023-02-22T22:46:31.872Z,33.47
2023-02-22T22:51:36.141Z,32.30
2023-02-22T22:56:39.579Z,29.57
2023-02-22T23:01:44.931Z,31.00
2023-02-22T23:06:50.893Z,31.83
2023-02-22T23:11:56.669Z,28.50
2023-02-22T23:17:03.747Z,31.30
2023-02-22T23:22:07.597Z,33.60
2023-02-22T23:27:11.005Z,34.60
2023-02-22T23:32:14.408Z,31.43
2023-02-22T23:37:20.907Z,35.03
2023-02-22T23:42:23.263Z,33.57
2023-02-22T23:47:25.462Z,32.33
2023-02-22T23:52:30.089Z,31.53
2023-02-22T23:57:36.953Z,29.63
